Crabtree Valley, North Carolina
Current Conditions -  °F | °C
As of 6:51 PM on Saturday 25 Oct 2014 (Local Time) from KRDU Reporting Station
Few Clouds Few Clouds  
Wind Chill: 60°   Ceiling: Unl
Heat Index: 60°   Visibility: 10mi
Dew Point: 46°   Wind: 3mph
Humidity: 60%   Direction: 210°SSW
Pressure: 29.91"   Gusts: NA
Location:  35.8523°N, 78.6943°W
Report Text: KRDU 252251Z 21003KT 10SM FEW250 16/08 A2991 RMK AO2 SLP128 T01560078 $
Loading
Personal Weather Stations






























Interactive Weather Map
Tropical Storm Tracking
New forecast layout! Learn more

10-Day Weather Forecast

Advertisements
Track Severe Weather on mobile